Time;durP1;ratioP1;P1;durP2;ratioP2;P2;SDS_P1;SDS_P2;PMS_P1;PMS_P2;Temp;Humidity;BMP_temperature;BMP_pressure;BME280_temperature;BME280_humidity;BME280_pressure;Samples;Min_cycle;Max_cycle;Signal;HPM_P1;HPM_P2
2023/01/10 00:00:47;;;;;;;5.20;2.00;;;;;;;4.76;100.00;98481.50;5010509;28;20258;-59
2023/01/10 00:03:14;;;;;;;7.43;2.20;;;;;;;4.75;100.00;98480.66;5008422;28;20716;-61
2023/01/10 00:05:41;;;;;;;4.67;2.10;;;;;;;4.79;100.00;98502.75;5010594;28;20236;-61
2023/01/10 00:08:08;;;;;;;3.87;1.97;;;;;;;4.80;100.00;98499.22;5008559;28;20301;-60
2023/01/10 00:10:35;;;;;;;4.80;2.03;;;;;;;4.78;100.00;98503.69;5009030;28;20238;-61
2023/01/10 00:15:48;;;;;;;7.67;2.30;;;;;;;4.80;100.00;98501.81;5009715;28;20733;-60
2023/01/10 00:18:15;;;;;;;4.07;2.30;;;;;;;4.78;100.00;98511.44;5006593;28;20326;-60
2023/01/10 00:20:43;;;;;;;6.13;2.40;;;;;;;4.78;100.00;98508.88;5009585;28;20643;-60
2023/01/10 00:23:10;;;;;;;3.37;1.80;;;;;;;4.69;100.00;98525.06;5002850;28;20228;-60
2023/01/10 00:25:36;;;;;;;8.47;2.07;;;;;;;4.70;100.00;98517.22;5009006;28;20224;-60
2023/01/10 00:28:10;;;;;;;3.37;1.90;;;;;;;4.69;100.00;98512.16;5007413;28;20236;-60
2023/01/10 00:30:38;;;;;;;4.90;2.00;;;;;;;4.69;100.00;98538.00;5009913;28;20244;-60
2023/01/10 00:33:06;;;;;;;3.47;2.27;;;;;;;4.62;100.00;98540.25;5007269;28;20240;-60
2023/01/10 00:35:33;;;;;;;7.10;1.93;;;;;;;4.65;100.00;98552.94;5011490;28;20247;-59
2023/01/10 00:38:04;;;;;;;5.80;1.93;;;;;;;4.59;100.00;98579.25;5009617;28;20293;-60
2023/01/10 00:40:31;;;;;;;5.00;1.53;;;;;;;4.60;100.00;98578.31;5012608;28;20224;-59
2023/01/10 00:45:44;;;;;;;4.87;1.73;;;;;;;4.55;100.00;98590.75;5012225;28;20382;-59
2023/01/10 00:48:11;;;;;;;6.57;1.80;;;;;;;4.50;100.00;98598.81;5011053;28;20243;-60
2023/01/10 00:50:38;;;;;;;4.03;1.67;;;;;;;4.50;100.00;98598.81;5013854;28;20290;-59
2023/01/10 00:53:04;;;;;;;3.87;1.60;;;;;;;4.46;100.00;98605.16;5011147;28;20331;-60
2023/01/10 00:55:31;;;;;;;4.23;1.47;;;;;;;4.43;100.00;98616.56;5012192;28;20883;-59
2023/01/10 00:57:58;;;;;;;3.50;1.37;;;;;;;4.44;100.00;98638.06;5008733;28;20235;-59
2023/01/10 01:00:25;;;;;;;2.37;1.30;;;;;;;4.39;100.00;98642.72;5011727;28;20232;-60
2023/01/10 01:02:53;;;;;;;4.60;1.40;;;;;;;4.36;100.00;98643.78;5012471;28;20235;-61
2023/01/10 01:05:20;;;;;;;3.13;0.93;;;;;;;4.33;100.00;98658.66;5008469;28;20247;-60
2023/01/10 01:07:48;;;;;;;1.60;0.90;;;;;;;4.31;100.00;98660.53;5012570;28;20233;-59
2023/01/10 01:10:28;;;;;;;1.57;0.80;;;;;;;4.30;100.00;98672.66;5008850;28;20232;-60
2023/01/10 01:12:56;;;;;;;7.30;0.90;;;;;;;4.25;100.00;98670.38;5012272;28;20235;-59
2023/01/10 01:15:23;;;;;;;0.93;0.50;;;;;;;4.15;100.00;98672.00;5011307;28;21234;-59
2023/01/10 01:17:49;;;;;;;1.93;0.70;;;;;;;4.17;100.00;98680.47;5012257;28;20656;-60
2023/01/10 01:20:18;;;;;;;2.30;0.83;;;;;;;4.15;100.00;98692.66;5009738;28;20254;-60
2023/01/10 01:22:45;;;;;;;2.27;0.70;;;;;;;4.17;100.00;98687.38;5012677;28;20267;-60
2023/01/10 01:25:12;;;;;;;4.37;0.80;;;;;;;4.19;100.00;98690.66;5009313;28;20222;-59
2023/01/10 01:27:38;;;;;;;2.83;0.70;;;;;;;4.20;100.00;98702.66;5009935;28;20293;-60
2023/01/10 01:30:06;;;;;;;4.77;1.00;;;;;;;4.22;100.00;98704.22;5006976;28;20301;-59
2023/01/10 01:32:33;;;;;;;4.13;1.67;;;;;;;4.25;100.00;98713.50;5012714;28;20240;-60
2023/01/10 01:35:00;;;;;;;2.77;0.73;;;;;;;4.24;100.00;98724.75;5010137;28;20268;-59
2023/01/10 01:37:28;;;;;;;2.83;0.80;;;;;;;4.27;100.00;98727.94;5014145;28;20709;-59
2023/01/10 01:39:54;;;;;;;2.53;0.90;;;;;;;4.28;100.00;98728.78;5012409;28;20224;-59
2023/01/10 01:42:25;;;;;;;4.00;0.60;;;;;;;4.28;100.00;98739.94;5008033;28;20231;-59
2023/01/10 01:45:21;;;;;;;1.57;0.80;;;;;;;4.32;100.00;98743.13;5011674;28;20226;-60
2023/01/10 01:47:52;;;;;;;2.13;0.53;;;;;;;4.28;100.00;98744.28;5005458;28;20495;-59
2023/01/10 01:50:25;;;;;;;6.37;0.90;;;;;;;4.34;100.00;98754.19;5008970;28;20240;-60
2023/01/10 01:52:56;;;;;;;6.00;0.90;;;;;;;4.37;100.00;98755.72;5011556;28;20248;-59
2023/01/10 01:55:26;;;;;;;8.30;1.20;;;;;;;4.40;100.00;98763.25;5010353;28;20228;-59
2023/01/10 01:57:55;;;;;;;4.47;1.20;;;;;;;4.34;100.00;98772.28;5012510;28;20254;-59
2023/01/10 02:00:22;;;;;;;5.40;1.50;;;;;;;4.37;100.00;98790.16;5008622;28;20255;-60
2023/01/10 02:02:51;;;;;;;10.53;1.80;;;;;;;4.36;100.00;98787.66;5011243;28;20987;-59
2023/01/10 02:05:21;;;;;;;5.53;1.47;;;;;;;4.38;100.00;98796.16;5008605;28;20231;-59
2023/01/10 02:07:52;;;;;;;5.80;1.53;;;;;;;4.39;100.00;98795.22;5013321;28;20262;-60
2023/01/10 02:10:27;;;;;;;11.87;1.87;;;;;;;4.42;100.00;98802.75;5006055;28;20235;-60
2023/01/10 02:12:55;;;;;;;6.97;1.50;;;;;;;4.41;100.00;98808.84;5012079;28;21428;-60
2023/01/10 02:15:22;;;;;;;8.27;1.87;;;;;;;4.45;100.00;98818.03;5008766;28;20785;-60
2023/01/10 02:17:51;;;;;;;9.93;2.23;;;;;;;4.41;100.00;98825.19;5009873;28;20240;-60
2023/01/10 02:20:21;;;;;;;9.53;1.80;;;;;;;4.45;100.00;98828.38;5009449;28;20251;-59
2023/01/10 02:23:13;;;;;;;8.17;2.07;;;;;;;4.46;100.00;98831.81;5010299;28;20271;-60
2023/01/10 02:26:06;;;;;;;9.10;2.03;;;;;;;4.43;100.00;98838.84;5010270;28;20297;-59
2023/01/10 02:29:04;;;;;;;12.07;2.80;;;;;;;4.48;100.00;98843.69;5008488;28;20252;-59
2023/01/10 02:32:07;;;;;;;11.37;2.00;;;;;;;4.48;100.00;98841.09;5007252;28;20256;-58
2023/01/10 02:34:46;;;;;;;10.87;2.20;;;;;;;4.51;100.00;98850.41;5006795;28;20297;-58
2023/01/10 02:37:16;;;;;;;7.73;1.97;;;;;;;4.49;100.00;98853.09;5009059;28;20236;-59
2023/01/10 02:39:52;;;;;;;10.43;2.40;;;;;;;4.51;100.00;98853.00;5010930;28;20285;-59
2023/01/10 02:42:25;;;;;;;9.13;1.73;;;;;;;4.52;100.00;98863.22;5007713;28;20251;-58
2023/01/10 02:44:58;;;;;;;12.57;2.60;;;;;;;4.48;100.00;98866.94;5009720;28;20285;-58
2023/01/10 02:47:26;;;;;;;10.80;2.13;;;;;;;4.48;100.00;98860.97;5009695;28;20239;-60
2023/01/10 02:49:52;;;;;;;12.63;2.20;;;;;;;4.47;100.00;98869.66;5011378;28;20239;-59
2023/01/10 02:52:23;;;;;;;14.57;2.20;;;;;;;4.48;100.00;98879.06;5009956;28;20290;-59
2023/01/10 02:54:54;;;;;;;12.67;2.43;;;;;;;4.50;100.00;98874.63;5009168;28;20306;-59
2023/01/10 02:57:44;;;;;;;15.90;2.80;;;;;;;4.44;100.00;98878.44;5008109;28;20239;-60
2023/01/10 03:00:27;;;;;;;15.00;2.63;;;;;;;4.45;100.00;98897.38;5009125;28;20878;-59
2023/01/10 03:03:08;;;;;;;21.57;2.70;;;;;;;4.42;100.00;98900.97;5011690;28;20285;-59
2023/01/10 03:05:51;;;;;;;13.03;2.33;;;;;;;4.42;100.00;98901.81;5009087;28;20238;-60
2023/01/10 03:08:28;;;;;;;16.97;2.57;;;;;;;4.43;100.00;98907.78;5006218;28;20806;-60
2023/01/10 03:10:57;;;;;;;16.43;3.07;;;;;;;4.44;100.00;98914.63;5009256;28;20345;-60
2023/01/10 03:13:29;;;;;;;13.40;2.87;;;;;;;4.40;100.00;98908.84;4990911;28;20695;-59
2023/01/10 03:15:58;;;;;;;19.57;2.27;;;;;;;4.42;100.00;98921.66;5002521;28;20225;-60
2023/01/10 03:18:32;;;;;;;17.13;2.40;;;;;;;4.40;100.00;98921.78;5000695;28;20306;-59
2023/01/10 03:21:02;;;;;;;11.07;2.10;;;;;;;4.43;100.00;98924.16;5001038;28;20236;-60
2023/01/10 03:23:32;;;;;;;13.07;2.80;;;;;;;4.47;100.00;98929.91;5004397;28;20240;-58
2023/01/10 03:26:00;;;;;;;17.67;2.43;;;;;;;4.41;100.00;98928.59;5000866;28;20306;-61
2023/01/10 03:28:31;;;;;;;14.40;3.43;;;;;;;4.42;100.00;98942.31;5003272;28;20306;-62
2023/01/10 03:31:03;;;;;;;11.10;1.80;;;;;;;4.42;100.00;98944.91;4999239;28;20232;-61
2023/01/10 03:33:33;;;;;;;15.00;2.33;;;;;;;4.43;100.00;98938.81;5003004;28;20750;-61
2023/01/10 03:36:09;;;;;;;18.57;3.20;;;;;;;4.46;100.00;98951.53;4999088;28;20306;-61
2023/01/10 03:38:42;;;;;;;11.63;2.40;;;;;;;4.46;100.00;98951.53;5002837;28;20634;-60
2023/01/10 03:41:14;;;;;;;15.90;2.33;;;;;;;4.47;100.00;98952.38;5000785;28;20233;-61
2023/01/10 03:46:36;;;;;;;14.67;2.70;;;;;;;4.42;100.00;98963.84;5000888;28;20247;-60
2023/01/10 03:49:06;;;;;;;16.13;2.80;;;;;;;4.40;100.00;98965.72;5001411;28;20255;-62
2023/01/10 03:51:36;;;;;;;19.37;2.67;;;;;;;4.37;100.00;98968.50;5004192;28;20659;-61
2023/01/10 03:54:03;;;;;;;15.23;2.33;;;;;;;4.41;100.00;98969.94;5000734;28;20228;-61
2023/01/10 03:56:30;;;;;;;16.43;2.77;;;;;;;4.42;100.00;98974.19;5004337;28;20708;-60
2023/01/10 03:58:56;;;;;;;18.57;3.00;;;;;;;4.41;100.00;98976.84;5004167;28;20871;-60
2023/01/10 04:01:23;;;;;;;15.57;2.70;;;;;;;4.39;100.00;98986.47;5000927;28;20263;-61
2023/01/10 04:03:49;;;;;;;15.07;2.90;;;;;;;4.36;100.00;98995.28;5003326;28;20240;-61
2023/01/10 04:06:19;;;;;;;16.37;2.50;;;;;;;4.37;100.00;98996.94;5000672;28;20228;-61
2023/01/10 04:08:45;;;;;;;17.20;3.10;;;;;;;4.36;100.00;99003.03;5003719;28;20236;-59
2023/01/10 04:11:12;;;;;;;21.60;3.13;;;;;;;4.33;100.00;99010.97;5000441;28;20310;-60
2023/01/10 04:13:40;;;;;;;17.27;3.30;;;;;;;4.34;100.00;99010.06;5007031;28;20644;-62
2023/01/10 04:16:08;;;;;;;18.87;2.97;;;;;;;4.32;100.00;99013.66;5004355;28;20243;-60
2023/01/10 04:18:34;;;;;;;11.03;2.20;;;;;;;4.35;100.00;99021.19;5007749;28;20235;-60
2023/01/10 04:21:01;;;;;;;20.13;3.07;;;;;;;4.34;100.00;99030.72;5004216;28;20231;-61
2023/01/10 04:23:29;;;;;;;17.70;3.13;;;;;;;4.39;100.00;99022.66;5007767;28;20422;-61
2023/01/10 04:25:55;;;;;;;16.90;2.60;;;;;;;4.34;100.00;99027.31;5007742;28;20225;-61
2023/01/10 04:28:22;;;;;;;13.00;2.80;;;;;;;4.32;100.00;99019.66;5005326;28;20232;-61
2023/01/10 04:30:48;;;;;;;13.47;2.70;;;;;;;4.29;100.00;99030.19;5224637;22;20298;-61
2023/01/10 04:33:15;;;;;;;17.70;2.70;;;;;;;4.27;100.00;99021.72;4992718;28;20608;-61
2023/01/10 04:35:47;;;;;;;15.50;3.53;;;;;;;4.26;100.00;99028.63;4986917;28;20270;-60
2023/01/10 04:38:13;;;;;;;16.23;2.77;;;;;;;4.26;100.00;99027.81;4984112;28;20271;-61
2023/01/10 04:40:41;;;;;;;16.80;2.77;;;;;;;4.25;100.00;99028.75;4987175;28;20252;-60
2023/01/10 04:43:08;;;;;;;16.87;3.17;;;;;;;4.26;100.00;99043.31;4965477;28;20293;-61
2023/01/10 04:45:35;;;;;;;11.97;2.20;;;;;;;4.26;100.00;99048.50;4968663;28;20637;-60
2023/01/10 04:48:01;;;;;;;17.60;2.43;;;;;;;4.26;100.00;99062.22;4965454;28;20241;-59
2023/01/10 04:50:28;;;;;;;13.43;3.03;;;;;;;4.26;100.00;99064.81;4968723;28;20229;-60
2023/01/10 04:52:54;;;;;;;13.33;2.77;;;;;;;4.25;100.00;99070.09;4967225;28;20682;-60
2023/01/10 04:55:21;;;;;;;17.50;2.47;;;;;;;4.24;100.00;99074.41;4965922;28;20710;-61
2023/01/10 04:57:49;;;;;;;9.63;2.20;;;;;;;4.23;100.00;99072.78;4968351;28;20662;-59
2023/01/10 05:00:16;;;;;;;12.87;2.03;;;;;;;4.22;100.00;99085.78;4965151;28;20606;-61
2023/01/10 05:02:43;;;;;;;13.10;2.60;;;;;;;4.23;100.00;99090.03;4967709;28;20240;-60
2023/01/10 05:05:10;;;;;;;15.47;2.83;;;;;;;4.24;100.00;99092.50;4964297;28;20223;-60
2023/01/10 05:07:37;;;;;;;11.03;2.50;;;;;;;4.26;100.00;99097.59;4967233;28;20241;-62
2023/01/10 05:10:04;;;;;;;22.63;2.80;;;;;;;4.22;100.00;99102.16;4964068;28;20291;-61
2023/01/10 05:12:31;;;;;;;17.20;3.30;;;;;;;4.23;100.00;99105.53;4966900;28;20244;-60
2023/01/10 05:14:59;;;;;;;20.90;2.93;;;;;;;4.23;100.00;99103.81;4967211;28;20235;-60
2023/01/10 05:17:26;;;;;;;27.73;9.57;;;;;;;4.24;100.00;99096.84;4964751;28;20255;-61
2023/01/10 05:19:52;;;;;;;12.67;2.47;;;;;;;4.24;100.00;99105.44;4967379;28;20240;-61
2023/01/10 05:22:19;;;;;;;15.67;3.17;;;;;;;4.23;100.00;99097.78;4963668;28;20657;-59
2023/01/10 05:24:45;;;;;;;15.80;2.80;;;;;;;4.24;100.00;99102.84;4967334;28;20825;-60
2023/01/10 05:27:12;;;;;;;13.67;2.83;;;;;;;4.23;100.00;99108.97;4963210;28;20803;-60
2023/01/10 05:29:38;;;;;;;17.47;2.90;;;;;;;4.24;100.00;99105.44;4967132;28;20807;-59
2023/01/10 05:32:06;;;;;;;14.27;2.73;;;;;;;4.22;100.00;99109.06;4963434;28;20292;-60
2023/01/10 05:34:33;;;;;;;16.75;4.00;;;;;;;4.25;100.00;99109.66;4965923;28;20449;-60
2023/01/10 05:36:59;;;;;;;13.93;3.50;;;;;;;4.26;100.00;99108.75;4964489;28;20254;-61
2023/01/10 05:39:26;;;;;;;16.43;3.47;;;;;;;4.26;100.00;99113.91;4967755;28;20245;-60
2023/01/10 05:41:53;;;;;;;15.07;3.03;;;;;;;4.33;100.00;99100.59;4965716;28;20238;-59
2023/01/10 05:44:19;;;;;;;18.93;2.90;;;;;;;4.34;100.00;99099.66;4963930;28;20244;-60
2023/01/10 05:46:46;;;;;;;12.97;3.13;;;;;;;4.33;100.00;99108.34;4966900;28;20245;-61
2023/01/10 05:49:13;;;;;;;13.53;3.20;;;;;;;4.29;100.00;99113.72;4963132;28;20279;-60
2023/01/10 05:51:41;;;;;;;11.20;2.90;;;;;;;4.30;100.00;99099.06;4958688;28;20709;-62
2023/01/10 05:54:07;;;;;;;12.47;2.83;;;;;;;4.31;100.00;99121.38;4963455;28;20316;-61
2023/01/10 05:56:35;;;;;;;17.07;3.30;;;;;;;4.31;100.00;99131.72;4967557;28;20763;-61
2023/01/10 05:59:01;;;;;;;19.00;4.20;;;;;;;4.28;100.00;99124.16;4964072;28;20300;-61
2023/01/10 06:01:28;;;;;;;19.57;2.87;;;;;;;4.29;100.00;99128.41;4967280;28;20292;-60
2023/01/10 06:03:54;;;;;;;35.58;13.93;;;;;;;4.31;100.00;99131.72;4966688;28;20446;-60
2023/01/10 06:06:22;;;;;;;16.33;4.00;;;;;;;4.30;100.00;99130.06;4963282;28;20705;-61
2023/01/10 06:08:49;;;;;;;15.43;3.13;;;;;;;4.29;100.00;99128.41;4967021;28;20748;-61
2023/01/10 06:11:15;;;;;;;9.17;2.67;;;;;;;4.39;100.00;99133.81;4963498;28;20724;-60
2023/01/10 06:13:42;;;;;;;13.17;3.33;;;;;;;4.38;100.00;99147.66;4966361;28;20300;-60
2023/01/10 06:16:09;;;;;;;11.37;2.80;;;;;;;4.41;100.00;99137.13;4963242;28;20234;-60
2023/01/10 06:18:35;;;;;;;21.60;13.67;;;;;;;4.41;100.00;99152.63;4966598;28;20285;-60
2023/01/10 06:21:02;;;;;;;17.87;4.80;;;;;;;4.42;100.00;99137.03;4963803;28;20238;-60
2023/01/10 06:23:30;;;;;;;17.20;6.30;;;;;;;4.44;100.00;99142.09;4965693;28;20242;-60
2023/01/10 06:25:56;;;;;;;10.93;6.00;;;;;;;4.47;100.00;99141.06;4964972;28;20555;-60
2023/01/10 06:28:23;;;;;;;10.23;2.73;;;;;;;4.44;100.00;99147.25;4963360;28;20233;-60
2023/01/10 06:30:49;;;;;;;11.17;2.83;;;;;;;4.47;99.56;99154.81;4965949;28;20233;-61
2023/01/10 06:33:16;;;;;;;12.27;2.73;;;;;;;4.48;100.00;99166.81;4963476;28;20237;-61
2023/01/10 06:35:45;;;;;;;12.73;2.97;;;;;;;4.46;100.00;99170.44;4965096;28;20233;-59
2023/01/10 06:38:12;;;;;;;18.83;3.60;;;;;;;4.45;100.00;99169.59;4962203;28;20222;-60
2023/01/10 06:40:40;;;;;;;16.87;4.30;;;;;;;4.46;100.00;99173.03;4965498;28;20234;-61
2023/01/10 06:43:06;;;;;;;10.50;3.00;;;;;;;4.50;100.00;99177.88;4961482;28;20633;-61
2023/01/10 06:45:33;;;;;;;13.37;3.10;;;;;;;4.50;97.48;99185.66;4966387;28;20241;-60
2023/01/10 06:48:00;;;;;;;9.83;2.47;;;;;;;4.51;99.73;99195.06;4963022;28;20262;-61
2023/01/10 06:50:26;;;;;;;9.50;3.10;;;;;;;4.53;99.88;99193.22;4965349;28;20233;-60
2023/01/10 06:52:57;;;;;;;17.43;2.73;;;;;;;4.50;100.00;99185.66;4965111;28;20249;-60
2023/01/10 06:55:23;;;;;;;14.50;3.07;;;;;;;4.49;99.94;99186.56;4962995;28;20669;-60
2023/01/10 06:57:56;;;;;;;6.77;2.40;;;;;;;4.45;99.84;99182.53;4964575;28;20241;-61
2023/01/10 07:00:23;;;;;;;13.13;3.97;;;;;;;4.42;99.59;99180.13;4963748;28;20300;-60
2023/01/10 07:02:50;;;;;;;19.13;3.80;;;;;;;4.35;100.00;99184.88;4962673;28;20434;-62
2023/01/10 07:05:17;;;;;;;12.00;2.80;;;;;;;4.37;100.00;99195.09;4962671;28;20659;-60
2023/01/10 07:07:43;;;;;;;17.03;2.60;;;;;;;4.42;100.00;99206.81;4966225;28;20237;-61
2023/01/10 07:10:11;;;;;;;13.83;2.60;;;;;;;4.45;100.00;99216.13;4962036;28;20230;-61
2023/01/10 07:12:37;;;;;;;10.90;2.43;;;;;;;4.48;100.00;99215.13;4964983;28;20249;-61
2023/01/10 07:15:06;;;;;;;12.67;3.80;;;;;;;4.48;100.00;99213.34;4961535;28;20238;-61
2023/01/10 07:17:33;;;;;;;22.80;10.90;;;;;;;4.50;100.00;99226.19;4964483;28;20227;-60
2023/01/10 07:19:59;;;;;;;11.43;2.20;;;;;;;4.51;99.59;99230.44;4961406;28;20567;-61
2023/01/10 07:22:26;;;;;;;8.17;2.63;;;;;;;4.55;99.54;99232.72;4965452;28;20242;-60
2023/01/10 07:24:53;;;;;;;40.13;26.30;;;;;;;4.55;98.09;99239.66;4965601;28;20241;-61
2023/01/10 07:27:20;;;;;;;24.33;10.33;;;;;;;4.51;99.82;99253.72;4962374;28;20230;-61
2023/01/10 07:29:46;;;;;;;13.60;4.90;;;;;;;4.50;98.58;99252.03;4965860;28;20293;-61
2023/01/10 07:32:14;;;;;;;13.67;2.30;;;;;;;4.52;100.00;99260.53;4962196;28;20230;-61
2023/01/10 07:34:41;;;;;;;13.70;4.83;;;;;;;4.49;98.32;99255.56;4965654;28;20270;-61
2023/01/10 07:37:07;;;;;;;14.50;5.33;;;;;;;4.48;99.76;99266.81;4961430;28;20597;-61
2023/01/10 07:39:34;;;;;;;16.13;3.53;;;;;;;4.47;98.83;99260.81;4964698;28;20737;-61
2023/01/10 07:42:01;;;;;;;8.80;1.90;;;;;;;4.46;99.94;99260.91;4962527;28;20772;-61
2023/01/10 07:44:27;;;;;;;7.17;1.67;;;;;;;4.49;99.90;99264.13;4965509;28;20329;-61
2023/01/10 07:46:54;;;;;;;6.27;2.20;;;;;;;4.53;99.60;99277.72;4965755;28;20242;-60
2023/01/10 07:49:22;;;;;;;18.60;2.80;;;;;;;4.54;99.38;99284.53;4966581;28;20242;-61
2023/01/10 07:51:49;;;;;;;9.17;2.30;;;;;;;4.50;99.02;99276.13;4968938;28;20254;-61
2023/01/10 07:54:15;;;;;;;13.20;2.70;;;;;;;4.51;99.33;99288.13;4965447;28;20237;-61
2023/01/10 07:56:42;;;;;;;8.13;1.97;;;;;;;4.54;98.92;99295.69;4969172;28;20641;-61
2023/01/10 07:59:08;;;;;;;12.67;1.87;;;;;;;4.53;98.07;99295.81;4966073;28;20233;-61
2023/01/10 08:01:35;;;;;;;7.43;1.80;;;;;;;4.56;97.60;99295.63;4967568;28;20233;-61
2023/01/10 08:04:02;;;;;;;9.97;1.73;;;;;;;4.54;98.09;99305.22;4965545;28;20245;-60
2023/01/10 08:06:30;;;;;;;8.33;1.90;;;;;;;4.61;96.58;99297.91;4969532;28;20439;-61
2023/01/10 08:08:56;;;;;;;8.60;1.53;;;;;;;4.57;97.15;99303.25;4966807;28;20649;-61
2023/01/10 08:11:23;;;;;;;6.63;1.80;;;;;;;4.61;97.54;99301.34;4966267;28;20230;-61
2023/01/10 08:13:50;;;;;;;9.23;1.90;;;;;;;4.58;96.50;99315.25;4969047;28;20241;-61
2023/01/10 08:16:19;;;;;;;8.90;1.67;;;;;;;4.65;96.54;99307.13;4965792;28;20281;-60
2023/01/10 08:18:46;;;;;;;9.67;1.30;;;;;;;4.65;96.24;99309.72;4969010;28;20237;-61
2023/01/10 08:21:13;;;;;;;9.33;1.53;;;;;;;4.68;96.67;99310.38;4964560;28;20842;-62
2023/01/10 08:23:41;;;;;;;36.70;5.17;;;;;;;4.63;96.44;99320.16;4968879;28;20237;-60
2023/01/10 08:26:07;;;;;;;9.23;2.50;;;;;;;4.61;95.10;99329.78;4963821;28;20249;-60
2023/01/10 08:28:34;;;;;;;6.77;1.80;;;;;;;4.66;94.28;99326.88;4967195;28;20302;-61
2023/01/10 08:31:05;;;;;;;9.77;2.90;;;;;;;4.70;94.40;99328.34;4964561;28;20263;-60
2023/01/10 08:33:32;;;;;;;10.17;2.20;;;;;;;4.68;93.85;99319.88;4967760;28;20380;-60
2023/01/10 08:35:58;;;;;;;9.00;1.70;;;;;;;4.75;94.45;99339.25;4968629;28;20233;-61
2023/01/10 08:38:25;;;;;;;8.10;1.83;;;;;;;4.68;93.03;99336.22;4962748;28;20579;-60
2023/01/10 08:40:56;;;;;;;11.73;1.60;;;;;;;4.73;93.72;99336.78;4968128;28;20334;-60
2023/01/10 08:43:23;;;;;;;6.80;1.40;;;;;;;4.81;92.74;99340.59;4979754;28;20233;-62
2023/01/10 08:45:50;;;;;;;10.03;1.70;;;;;;;4.81;92.49;99344.03;4968557;28;20236;-61
2023/01/10 08:48:17;;;;;;;9.43;2.50;;;;;;;4.87;91.86;99341.06;4965910;28;20272;-61
2023/01/10 08:50:43;;;;;;;9.73;2.43;;;;;;;4.92;91.42;99345.13;4968643;28;20241;-61
2023/01/10 08:53:12;;;;;;;9.67;2.30;;;;;;;4.91;91.19;99352.03;4965121;28;20682;-61
2023/01/10 08:55:39;;;;;;;9.03;2.23;;;;;;;4.92;90.49;99347.72;4967399;28;20605;-61
2023/01/10 08:58:07;;;;;;;8.33;1.73;;;;;;;4.98;90.91;99353.31;4965131;28;20304;-61
2023/01/10 09:00:33;;;;;;;11.07;1.77;;;;;;;5.06;89.01;99354.59;4967069;28;20316;-61
2023/01/10 09:03:00;;;;;;;9.02;1.92;;;;;;;5.14;88.87;99349.75;4962546;28;20438;-62
2023/01/10 09:05:26;;;;;;;11.10;2.00;;;;;;;5.15;88.75;99348.81;4967654;28;20590;-62
2023/01/10 09:07:53;;;;;;;9.83;1.77;;;;;;;5.27;89.30;99355.81;4967036;28;20302;-62
2023/01/10 09:10:21;;;;;;;9.20;2.40;;;;;;;5.20;88.65;99366.66;4963999;28;20594;-62
2023/01/10 09:12:58;;;;;;;7.87;2.03;;;;;;;5.30;88.54;99358.19;4965905;28;20249;-62
2023/01/10 09:15:28;;;;;;;10.80;1.63;;;;;;;5.34;88.71;99352.81;4965420;28;20759;-62
2023/01/10 09:17:56;;;;;;;8.73;1.70;;;;;;;5.27;90.70;99367.94;4965590;28;20245;-61
2023/01/10 09:20:24;;;;;;;7.07;2.00;;;;;;;5.19;87.70;99367.59;4963783;28;20820;-61
2023/01/10 09:22:51;;;;;;;14.20;1.70;;;;;;;5.30;85.45;99375.50;4965117;28;21160;-61
2023/01/10 09:25:18;;;;;;;10.63;2.03;;;;;;;5.23;86.86;99372.47;4961761;28;20234;-61
2023/01/10 09:27:45;;;;;;;9.90;2.20;;;;;;;5.12;85.92;99370.56;4967433;28;20233;-60
2023/01/10 09:30:12;;;;;;;10.73;1.87;;;;;;;5.28;85.76;99375.59;4962941;28;20237;-61
2023/01/10 09:32:40;;;;;;;8.43;1.50;;;;;;;5.25;87.91;99386.13;4967497;28;20234;-61
2023/01/10 09:35:07;;;;;;;8.67;2.03;;;;;;;5.30;86.65;99384.09;4964015;28;20230;-61
2023/01/10 09:37:34;;;;;;;11.07;2.13;;;;;;;5.33;85.53;99390.81;4965708;28;20637;-61
2023/01/10 09:40:00;;;;;;;18.20;5.57;;;;;;;5.28;84.56;99393.72;4964044;28;20887;-61
2023/01/10 09:42:44;;;;;;;12.47;2.20;;;;;;;5.30;84.86;99393.63;4966285;28;20241;-61
2023/01/10 09:45:17;;;;;;;13.00;2.10;;;;;;;5.49;86.76;99402.78;4964218;28;20222;-61
2023/01/10 09:47:53;;;;;;;14.97;6.47;;;;;;;5.52;85.75;99408.59;4966899;28;20241;-62
2023/01/10 09:50:27;;;;;;;7.53;1.97;;;;;;;5.34;84.10;99420.94;4962764;28;20237;-62
2023/01/10 09:52:58;;;;;;;18.40;7.40;;;;;;;5.40;85.24;99397.25;4966384;28;20300;-61
2023/01/10 09:55:28;;;;;;;9.93;3.27;;;;;;;5.45;84.81;99402.97;4964037;28;20288;-64
2023/01/10 09:57:58;;;;;;;18.47;5.57;;;;;;;5.45;87.69;99408.16;4965736;28;20237;-61
2023/01/10 10:00:39;;;;;;;5.20;1.47;;;;;;;5.48;84.88;99407.13;4963503;28;20838;-62
2023/01/10 10:03:21;;;;;;;10.68;3.58;;;;;;;5.61;85.96;99413.19;4962685;28;21069;-62
2023/01/10 10:05:48;;;;;;;13.20;3.03;;;;;;;5.69;84.03;99402.31;4966201;28;20233;-61
2023/01/10 10:08:17;;;;;;;8.77;2.60;;;;;;;5.78;86.59;99405.25;4963424;28;20236;-61
2023/01/10 10:10:54;;;;;;;5.50;2.50;;;;;;;5.82;83.64;99404.94;4963237;28;20237;-62
2023/01/10 10:13:30;;;;;;;7.80;4.00;;;;;;;5.77;84.03;99401.84;4962758;28;20300;-61
2023/01/10 10:16:06;;;;;;;10.60;2.17;;;;;;;5.85;83.18;99406.50;4965837;28;20225;-61
2023/01/10 10:18:44;;;;;;;8.30;1.60;;;;;;;6.03;82.38;99413.09;4962871;28;20288;-62
2023/01/10 10:21:22;;;;;;;5.63;1.63;;;;;;;6.03;81.09;99413.09;4962915;28;20324;-62
2023/01/10 10:24:07;;;;;;;7.83;1.60;;;;;;;5.81;80.73;99418.84;4965831;28;20284;-61
2023/01/10 10:26:39;;;;;;;10.73;1.90;;;;;;;5.81;80.15;99405.03;4961399;28;20317;-62
2023/01/10 10:29:41;;;;;;;7.03;1.70;;;;;;;5.69;80.12;99417.03;4961447;28;20717;-62
2023/01/10 10:32:21;;;;;;;7.33;1.70;;;;;;;5.95;81.23;99404.13;4934236;28;20248;-62
2023/01/10 10:34:52;;;;;;;5.37;1.10;;;;;;;5.91;80.96;99406.09;4965323;28;20241;-61
2023/01/10 10:37:23;;;;;;;9.77;1.60;;;;;;;6.21;82.07;99415.38;4961969;28;23653;-62
2023/01/10 10:39:54;;;;;;;7.33;1.50;;;;;;;6.30;77.32;99408.72;4965874;28;20297;-61
2023/01/10 10:42:21;;;;;;;7.47;1.43;;;;;;;6.27;79.09;99406.34;4961833;28;20234;-61
2023/01/10 10:44:53;;;;;;;8.17;1.57;;;;;;;6.31;77.34;99398.28;4965253;28;20230;-62
2023/01/10 10:47:22;;;;;;;11.63;1.80;;;;;;;6.32;78.67;99406.88;4961864;28;20252;-62
2023/01/10 10:49:58;;;;;;;3.97;1.20;;;;;;;6.47;78.48;99412.75;4964698;28;20245;-62
2023/01/10 10:52:27;;;;;;;7.17;1.40;;;;;;;6.63;78.06;99415.16;4962665;28;20792;-62
2023/01/10 10:54:54;;;;;;;13.60;1.70;;;;;;;6.69;79.20;99409.53;4963622;28;20245;-62
2023/01/10 10:57:25;;;;;;;5.43;1.47;;;;;;;6.59;77.20;99418.88;4962515;28;20253;-62
2023/01/10 10:59:52;;;;;;;10.07;1.70;;;;;;;6.53;76.77;99407.16;4965415;28;20237;-62
2023/01/10 11:02:24;;;;;;;13.70;1.87;;;;;;;6.56;77.86;99412.13;4962049;28;20287;-62
2023/01/10 11:04:56;;;;;;;10.80;2.03;;;;;;;6.61;76.94;99402.28;4964353;28;20812;-62
2023/01/10 11:07:24;;;;;;;6.27;1.50;;;;;;;6.61;77.21;99396.25;4962883;28;20701;-62
2023/01/10 11:09:56;;;;;;;7.23;1.80;;;;;;;6.41;77.95;99403.66;4965102;28;20233;-62
2023/01/10 11:12:32;;;;;;;8.20;1.63;;;;;;;6.16;78.10;99399.31;4963101;28;20321;-62
2023/01/10 11:15:00;;;;;;;11.07;1.53;;;;;;;5.95;78.09;99397.19;4964138;28;20241;-62
2023/01/10 11:17:29;;;;;;;5.50;1.80;;;;;;;6.00;80.04;99394.28;4962863;28;20226;-62
2023/01/10 11:19:59;;;;;;;9.33;2.07;;;;;;;6.11;79.36;99391.00;4964166;28;20442;-62
2023/01/10 11:22:27;;;;;;;6.20;1.43;;;;;;;6.22;79.34;99393.72;4959839;28;20244;-62
2023/01/10 11:24:56;;;;;;;8.50;1.83;;;;;;;6.46;77.05;99386.00;4964685;28;20287;-62
2023/01/10 11:27:25;;;;;;;7.97;1.83;;;;;;;6.51;79.22;99396.06;4962583;28;20248;-62
2023/01/10 11:29:55;;;;;;;10.30;1.97;;;;;;;6.58;79.22;99386.91;4964499;28;20243;-61
2023/01/10 11:32:26;;;;;;;8.63;1.90;;;;;;;6.56;77.66;99386.19;4963158;28;20328;-62
2023/01/10 11:34:57;;;;;;;6.83;1.90;;;;;;;6.41;79.97;99379.47;4964815;28;20242;-62
2023/01/10 11:37:31;;;;;;;8.33;1.97;;;;;;;6.44;80.69;99381.84;4962490;28;20248;-62
2023/01/10 11:40:22;;;;;;;8.20;1.93;;;;;;;6.72;79.20;99377.34;4963157;28;20332;-62
2023/01/10 11:42:48;;;;;;;8.40;1.93;;;;;;;6.82;77.10;99391.34;4962045;28;20245;-62
2023/01/10 11:45:23;;;;;;;6.57;1.43;;;;;;;6.76;78.76;99390.00;4961342;28;20708;-62
2023/01/10 11:47:54;;;;;;;7.93;1.73;;;;;;;6.40;79.55;99394.22;4964743;28;20597;-62
2023/01/10 11:50:24;;;;;;;7.07;2.00;;;;;;;6.51;78.66;99403.84;4961278;28;20637;-62